createdAt,value
2023-04-08T00:06:08.309Z,97.30
2023-04-08T00:16:10.019Z,97.30
2023-04-08T00:26:11.908Z,97.40
2023-04-08T00:36:13.561Z,97.50
2023-04-08T00:56:17.391Z,97.40
2023-04-08T01:06:46.959Z,97.50
2023-04-08T01:16:48.794Z,97.40
2023-04-08T01:26:50.592Z,97.30
2023-04-08T01:36:53.668Z,97.40
2023-04-08T01:46:56.813Z,97.30
2023-04-08T01:56:59.598Z,97.40
2023-04-08T02:07:02.698Z,97.30
2023-04-08T02:17:12.535Z,97.20
2023-04-08T02:27:15.466Z,97.30
2023-04-08T02:37:17.210Z,97.40
2023-04-08T02:47:18.874Z,97.20
2023-04-08T02:57:20.591Z,97.10
2023-04-08T03:07:22.420Z,97.20
2023-04-08T03:17:24.134Z,97.00
2023-04-08T03:37:28.020Z,97.20
2023-04-08T03:47:30.475Z,97.60
2023-04-08T03:57:32.086Z,97.90
2023-04-08T04:07:33.758Z,98.20
2023-04-08T04:17:35.396Z,98.20
2023-04-08T04:47:41.461Z,98.30
2023-04-08T04:57:44.425Z,98.30
2023-04-08T05:07:46.180Z,98.30
2023-04-08T05:17:47.906Z,98.40
2023-04-08T05:27:49.596Z,98.60
2023-04-08T05:47:53.338Z,98.30
2023-04-08T06:07:57.137Z,98.00
2023-04-08T06:17:58.802Z,98.20
2023-04-08T06:28:00.631Z,98.10
2023-04-08T06:38:02.342Z,97.70
2023-04-08T06:48:04.226Z,97.80
2023-04-08T07:08:09.046Z,97.00
2023-04-08T07:18:10.689Z,96.60
2023-04-08T07:28:12.591Z,96.20
2023-04-08T07:38:14.288Z,96.10
2023-04-08T07:48:16.021Z,95.20
2023-04-08T07:58:17.630Z,95.00
2023-04-08T08:08:19.415Z,95.10
2023-04-08T08:18:21.537Z,94.90
2023-04-08T08:28:23.188Z,94.20
2023-04-08T08:38:26.126Z,93.90
2023-04-08T08:48:28.087Z,93.40
2023-04-08T08:58:29.827Z,93.10
2023-04-08T09:08:36.888Z,93.00
2023-04-08T09:18:39.692Z,92.20
2023-04-08T09:28:43.538Z,90.70
2023-04-08T09:38:45.794Z,89.60
2023-04-08T09:57:56.637Z,86.70
2023-04-08T10:07:58.667Z,85.00
2023-04-08T10:18:03.140Z,83.20
2023-04-08T10:28:18.118Z,82.80
2023-04-08T10:38:22.991Z,80.80
2023-04-08T10:48:25.469Z,80.10
2023-04-08T11:04:42.955Z,79.50
2023-04-08T11:18:55.580Z,79.10
2023-04-08T11:28:58.524Z,78.50
2023-04-08T11:39:00.441Z,78.60
2023-04-08T11:49:04.828Z,78.00
2023-04-08T11:59:06.675Z,77.50
2023-04-08T12:09:08.285Z,76.80
2023-04-08T12:19:09.937Z,76.00
2023-04-08T12:29:11.791Z,76.00
2023-04-08T12:39:13.423Z,75.90
2023-04-08T12:49:15.187Z,76.40
2023-04-08T12:59:16.906Z,76.80
2023-04-08T13:09:18.592Z,76.80
2023-04-08T13:19:20.224Z,77.80
2023-04-08T13:29:21.882Z,78.40
2023-04-08T13:39:23.551Z,78.30
2023-04-08T13:49:25.914Z,77.70
2023-04-08T13:59:27.570Z,78.00
2023-04-08T14:19:32.117Z,79.20
2023-04-08T14:29:33.779Z,79.20
2023-04-08T14:39:35.857Z,79.50
2023-04-08T14:49:37.565Z,79.80
2023-04-08T14:59:39.196Z,80.20
2023-04-08T15:19:43.526Z,80.40
2023-04-08T15:29:45.215Z,79.40
2023-04-08T15:39:46.948Z,78.10
2023-04-08T15:49:48.850Z,76.30
2023-04-08T15:59:50.486Z,74.90
2023-04-08T16:19:54.259Z,73.40
2023-04-08T16:29:57.604Z,73.30
2023-04-08T16:39:59.338Z,73.00
2023-04-08T16:50:01.053Z,72.90
2023-04-08T17:00:03.015Z,73.20
2023-04-08T17:10:05.141Z,73.00
2023-04-08T17:20:08.155Z,72.90
2023-04-08T17:30:11.455Z,72.70
2023-04-08T17:40:13.473Z,72.40
2023-04-08T17:50:15.325Z,71.80
2023-04-08T18:00:17.215Z,71.70
2023-04-08T18:10:18.890Z,71.50
2023-04-08T18:20:20.569Z,71.60
2023-04-08T18:30:22.269Z,71.80
2023-04-08T18:40:25.486Z,72.20
2023-04-08T18:50:27.098Z,72.80
2023-04-08T19:00:28.755Z,73.30
2023-04-08T19:10:31.350Z,74.30
2023-04-08T19:20:33.683Z,76.30
2023-04-08T19:30:38.854Z,77.30
2023-04-08T19:40:40.713Z,77.80
2023-04-08T19:50:42.737Z,78.40
2023-04-08T20:00:44.399Z,79.60
2023-04-08T20:10:46.581Z,80.60
2023-04-08T20:20:49.032Z,81.20
2023-04-08T20:30:51.824Z,82.30
2023-04-08T20:40:53.460Z,83.20
2023-04-08T20:50:55.086Z,84.20
2023-04-08T21:01:00.083Z,84.80
2023-04-08T21:11:01.804Z,85.70
2023-04-08T21:21:03.472Z,86.60
2023-04-08T21:31:12.541Z,86.90
2023-04-08T21:41:14.380Z,87.30
2023-04-08T21:51:19.316Z,87.80
2023-04-08T22:01:21.024Z,88.40
2023-04-08T22:11:22.830Z,89.10
2023-04-08T22:21:25.102Z,89.60
2023-04-08T22:31:27.051Z,90.00
2023-04-08T22:41:28.756Z,90.20
2023-04-08T23:01:32.689Z,90.60
2023-04-08T23:21:36.559Z,91.00
2023-04-08T23:31:38.329Z,91.20
2023-04-08T23:41:40.219Z,91.30
2023-04-08T23:51:41.844Z,91.40
